Time;durP1;ratioP1;P1;durP2;ratioP2;P2;SDS_P1;SDS_P2;PMS_P1;PMS_P2;Temp;Humidity;BMP_temperature;BMP_pressure;BME280_temperature;BME280_humidity;BME280_pressure;Samples;Min_cycle;Max_cycle;Signal;HPM_P1;HPM_P2
2023/10/31 00:03:44;;;;;;;;;;;17.30;70.90;;;;;;10193883;28;96320;-66
2023/10/31 00:08:46;;;;;;;;;;;17.20;70.80;;;;;;10196426;28;93203;-65
2023/10/31 00:13:48;;;;;;;;;;;17.20;70.80;;;;;;10210800;28;93042;-64
2023/10/31 00:18:50;;;;;;;;;;;17.20;70.80;;;;;;10211351;28;94428;-65
2023/10/31 00:23:53;;;;;;;;;;;17.20;70.80;;;;;;10210974;28;93086;-65
2023/10/31 00:28:54;;;;;;;;;;;17.20;70.80;;;;;;10181532;28;94133;-65
2023/10/31 00:33:57;;;;;;;;;;;17.20;70.90;;;;;;10208616;28;92841;-65
2023/10/31 00:38:59;;;;;;;;;;;17.20;70.80;;;;;;10203522;28;92610;-64
2023/10/31 00:44:01;;;;;;;;;;;17.20;70.90;;;;;;10203718;28;92911;-65
2023/10/31 00:49:03;;;;;;;;;;;17.20;70.80;;;;;;10199889;28;96967;-67
2023/10/31 00:54:05;;;;;;;;;;;17.10;70.80;;;;;;10198811;28;94865;-67
2023/10/31 00:59:07;;;;;;;;;;;17.10;70.80;;;;;;10207704;28;93327;-66
2023/10/31 01:04:08;;;;;;;;;;;17.10;70.80;;;;;;10208232;28;93967;-66
2023/10/31 01:09:11;;;;;;;;;;;17.10;70.80;;;;;;10188225;28;94071;-66
2023/10/31 01:14:13;;;;;;;;;;;17.10;70.80;;;;;;10204411;28;92888;-66
2023/10/31 01:19:15;;;;;;;;;;;17.10;70.80;;;;;;10207490;28;94100;-66
2023/10/31 01:24:17;;;;;;;;;;;17.10;70.80;;;;;;10205752;28;93852;-66
2023/10/31 01:29:19;;;;;;;;;;;17.10;70.90;;;;;;10206258;28;92879;-67
2023/10/31 01:34:21;;;;;;;;;;;17.10;70.90;;;;;;10188174;28;93351;-66
2023/10/31 01:39:22;;;;;;;;;;;17.10;70.80;;;;;;10195964;28;96630;-66
2023/10/31 01:44:24;;;;;;;;;;;17.00;70.80;;;;;;10204489;28;96149;-67
2023/10/31 01:49:26;;;;;;;;;;;17.10;70.90;;;;;;10198225;28;93200;-67
2023/10/31 01:54:28;;;;;;;;;;;17.00;70.90;;;;;;10205039;28;93167;-66
2023/10/31 01:59:30;;;;;;;;;;;17.00;70.90;;;;;;10196556;28;93669;-66
2023/10/31 02:04:32;;;;;;;;;;;17.00;70.90;;;;;;10583214;23;94385;-48
2023/10/31 02:09:34;;;;;;;;;;;17.00;70.90;;;;;;10239151;28;95224;-46
2023/10/31 02:14:36;;;;;;;;;;;17.00;70.90;;;;;;10232823;28;92830;-50
2023/10/31 02:19:38;;;;;;;;;;;17.00;70.90;;;;;;10217836;28;93985;-49
2023/10/31 02:24:40;;;;;;;;;;;17.00;70.90;;;;;;10211650;28;94099;-47
2023/10/31 02:29:42;;;;;;;;;;;17.00;70.90;;;;;;10238061;28;96204;-43
2023/10/31 02:34:44;;;;;;;;;;;17.00;70.90;;;;;;10239847;28;95278;-46
2023/10/31 02:39:46;;;;;;;;;;;16.90;70.90;;;;;;10233573;28;94088;-45
2023/10/31 02:44:48;;;;;;;;;;;16.90;70.90;;;;;;10234444;28;93114;-43
2023/10/31 02:49:50;;;;;;;;;;;16.90;71.00;;;;;;10226116;28;92810;-44
2023/10/31 02:54:52;;;;;;;;;;;16.90;70.90;;;;;;10235672;28;93562;-43
2023/10/31 02:59:54;;;;;;;;;;;16.90;70.90;;;;;;10221105;28;93793;-44
2023/10/31 03:04:56;;;;;;;;;;;16.90;71.00;;;;;;10239320;28;96073;-43
2023/10/31 03:09:57;;;;;;;;;;;16.90;70.90;;;;;;10216583;28;94060;-46
2023/10/31 03:14:59;;;;;;;;;;;16.90;70.90;;;;;;10230128;28;93118;-45
2023/10/31 03:20:01;;;;;;;;;;;16.90;71.00;;;;;;10238176;28;95551;-45
2023/10/31 03:25:03;;;;;;;;;;;16.90;71.00;;;;;;10216117;28;96202;-43
2023/10/31 03:30:05;;;;;;;;;;;16.90;71.00;;;;;;10231302;28;92689;-43
2023/10/31 03:35:07;;;;;;;;;;;16.90;70.90;;;;;;10232874;28;93876;-45
2023/10/31 03:40:09;;;;;;;;;;;16.90;70.90;;;;;;10239816;28;93187;-48
2023/10/31 03:45:11;;;;;;;;;;;16.90;70.90;;;;;;10242072;28;93730;-47
2023/10/31 03:50:13;;;;;;;;;;;16.90;70.90;;;;;;10239039;28;94462;-48
2023/10/31 03:55:15;;;;;;;;;;;16.90;70.90;;;;;;10239886;28;93443;-45
2023/10/31 04:00:17;;;;;;;;;;;16.90;70.90;;;;;;10240334;28;93485;-46
2023/10/31 04:05:18;;;;;;;;;;;16.90;70.80;;;;;;10239508;28;93754;-45
2023/10/31 04:10:21;;;;;;;;;;;16.90;70.80;;;;;;10216004;28;94938;-44
2023/10/31 04:15:22;;;;;;;;;;;16.90;70.70;;;;;;10223391;28;96348;-45
2023/10/31 04:20:24;;;;;;;;;;;16.90;70.70;;;;;;10210249;28;93953;-45
2023/10/31 04:25:28;;;;;;;;;;;16.90;70.80;;;;;;10229527;28;93661;-49
2023/10/31 04:30:30;;;;;;;;;;;17.00;70.70;;;;;;10223384;28;94160;-47
2023/10/31 04:35:32;;;;;;;;;;;16.90;70.70;;;;;;10264629;28;93784;-45
2023/10/31 04:40:34;;;;;;;;;;;16.90;70.70;;;;;;10247079;28;93784;-49
2023/10/31 04:45:36;;;;;;;;;;;16.90;70.70;;;;;;10256546;28;93822;-45
2023/10/31 04:50:38;;;;;;;;;;;16.90;70.70;;;;;;10256593;28;92988;-47
2023/10/31 04:55:40;;;;;;;;;;;16.90;70.70;;;;;;10246771;28;94256;-46
2023/10/31 05:00:42;;;;;;;;;;;16.90;70.70;;;;;;10243498;28;95717;-46
2023/10/31 05:05:44;;;;;;;;;;;16.90;70.70;;;;;;10246586;28;95006;-44
2023/10/31 05:10:47;;;;;;;;;;;16.90;70.70;;;;;;10244668;28;93372;-46
2023/10/31 05:15:49;;;;;;;;;;;16.90;70.70;;;;;;10239400;28;93103;-47
2023/10/31 05:20:51;;;;;;;;;;;16.90;70.70;;;;;;10241714;28;94118;-48
2023/10/31 05:25:53;;;;;;;;;;;16.90;70.70;;;;;;10230987;28;93755;-47
2023/10/31 05:30:55;;;;;;;;;;;16.90;70.80;;;;;;10207740;28;94086;-47
2023/10/31 05:35:57;;;;;;;;;;;16.90;70.70;;;;;;10240190;28;94111;-47
2023/10/31 05:40:59;;;;;;;;;;;16.80;70.70;;;;;;10232632;28;93194;-45
2023/10/31 05:46:01;;;;;;;;;;;16.90;70.70;;;;;;10233383;28;92936;-48
2023/10/31 05:51:03;;;;;;;;;;;16.90;70.80;;;;;;10242840;28;95331;-48
2023/10/31 05:56:07;;;;;;;;;;;16.90;70.80;;;;;;10223073;28;95538;-50
2023/10/31 06:01:09;;;;;;;;;;;16.90;70.70;;;;;;10232860;28;93787;-48
2023/10/31 06:06:11;;;;;;;;;;;17.00;70.50;;;;;;10243649;28;92893;-45
2023/10/31 06:11:15;;;;;;;;;;;17.00;70.40;;;;;;10240157;28;94137;-47
2023/10/31 06:16:17;;;;;;;;;;;17.10;70.40;;;;;;10227734;28;93793;-45
2023/10/31 06:21:19;;;;;;;;;;;17.00;70.30;;;;;;10244217;28;93914;-44
2023/10/31 06:26:21;;;;;;;;;;;17.10;70.20;;;;;;10229670;28;93071;-45
2023/10/31 06:31:23;;;;;;;;;;;17.10;71.20;;;;;;10223976;28;93706;-44
2023/10/31 06:36:25;;;;;;;;;;;17.10;71.20;;;;;;10240552;28;93915;-46
2023/10/31 06:41:27;;;;;;;;;;;17.10;71.20;;;;;;10242892;28;95706;-46
2023/10/31 06:46:29;;;;;;;;;;;17.10;71.50;;;;;;10239881;28;95147;-47
2023/10/31 06:51:31;;;;;;;;;;;17.10;71.70;;;;;;10238749;28;94005;-49
2023/10/31 06:56:33;;;;;;;;;;;17.10;71.80;;;;;;10224011;28;93950;-46
2023/10/31 07:01:35;;;;;;;;;;;17.10;72.70;;;;;;10226009;28;93066;-46
2023/10/31 07:06:37;;;;;;;;;;;17.10;71.70;;;;;;10242030;28;93845;-46
2023/10/31 07:11:39;;;;;;;;;;;17.10;71.80;;;;;;10241281;28;95377;-46
2023/10/31 07:16:43;;;;;;;;;;;17.00;72.30;;;;;;10215751;28;92300;-49
2023/10/31 07:21:45;;;;;;;;;;;17.10;72.10;;;;;;10235331;28;94083;-46
2023/10/31 07:26:47;;;;;;;;;;;17.10;72.20;;;;;;10233211;28;93531;-49
2023/10/31 07:31:49;;;;;;;;;;;17.10;71.20;;;;;;10230135;28;95623;-44
2023/10/31 07:36:51;;;;;;;;;;;17.10;71.50;;;;;;10231909;28;95354;-46
2023/10/31 07:41:53;;;;;;;;;;;17.10;71.10;;;;;;10239550;28;93030;-48
2023/10/31 07:46:55;;;;;;;;;;;17.00;70.70;;;;;;10224817;28;94332;-43
2023/10/31 07:51:57;;;;;;;;;;;17.00;71.50;;;;;;10238967;28;94200;-47
2023/10/31 07:56:59;;;;;;;;;;;17.10;73.00;;;;;;10240858;28;93563;-47
2023/10/31 08:02:02;;;;;;;;;;;17.10;71.90;;;;;;10239193;28;93685;-49
2023/10/31 08:07:04;;;;;;;;;;;17.00;71.20;;;;;;10239608;28;92759;-45
2023/10/31 08:12:06;;;;;;;;;;;16.90;70.80;;;;;;10233636;28;93553;-46
2023/10/31 08:17:09;;;;;;;;;;;16.90;71.10;;;;;;10228545;28;93839;-45
2023/10/31 08:22:11;;;;;;;;;;;17.00;73.30;;;;;;10238544;28;96177;-47
2023/10/31 08:27:13;;;;;;;;;;;17.00;73.70;;;;;;10237065;28;95167;-45
2023/10/31 08:32:16;;;;;;;;;;;17.00;73.50;;;;;;10225841;28;94060;-46
2023/10/31 08:37:17;;;;;;;;;;;17.00;73.30;;;;;;10244375;28;93334;-47
2023/10/31 08:42:20;;;;;;;;;;;16.90;73.00;;;;;;10225065;28;94149;-47
2023/10/31 08:47:22;;;;;;;;;;;16.90;72.80;;;;;;10215184;28;93777;-43
2023/10/31 08:52:24;;;;;;;;;;;16.90;72.70;;;;;;10220458;28;93431;-44
2023/10/31 08:57:26;;;;;;;;;;;16.90;72.50;;;;;;10212526;28;93262;-44
2023/10/31 09:02:28;;;;;;;;;;;16.90;72.50;;;;;;10245200;28;93405;-54
2023/10/31 09:07:30;;;;;;;;;;;16.90;72.30;;;;;;10244147;28;93903;-45
2023/10/31 09:12:32;;;;;;;;;;;16.90;72.20;;;;;;10220505;28;96582;-42
2023/10/31 09:17:34;;;;;;;;;;;17.00;72.10;;;;;;10221550;28;96026;-43
2023/10/31 09:22:37;;;;;;;;;;;17.00;72.00;;;;;;10233543;28;93916;-43
2023/10/31 09:27:40;;;;;;;;;;;17.00;71.80;;;;;;10244429;28;93511;-43
2023/10/31 09:32:42;;;;;;;;;;;17.00;71.70;;;;;;10206923;28;93996;-44
2023/10/31 09:37:48;;;;;;;;;;;17.00;71.70;;;;;;10235265;28;94086;-42
2023/10/31 09:42:50;;;;;;;;;;;17.00;71.60;;;;;;10230816;28;94056;-44
2023/10/31 09:47:52;;;;;;;;;;;17.00;71.50;;;;;;10232940;28;92607;-45
2023/10/31 09:52:55;;;;;;;;;;;17.00;71.50;;;;;;10241104;28;95995;-46
2023/10/31 09:57:57;;;;;;;;;;;17.10;71.50;;;;;;10233660;28;93789;-44
2023/10/31 10:02:59;;;;;;;;;;;17.10;71.40;;;;;;10241413;28;94990;-44
2023/10/31 10:08:01;;;;;;;;;;;17.00;71.30;;;;;;10238973;28;96184;-44
2023/10/31 10:13:03;;;;;;;;;;;17.00;71.30;;;;;;10229384;28;93110;-44
2023/10/31 10:18:05;;;;;;;;;;;17.00;71.20;;;;;;10242983;28;93010;-42
2023/10/31 10:23:07;;;;;;;;;;;17.00;71.20;;;;;;10235370;28;93824;-43
2023/10/31 10:28:13;;;;;;;;;;;17.00;71.20;;;;;;10231690;28;102939;-45
2023/10/31 10:33:15;;;;;;;;;;;17.00;71.20;;;;;;10238488;28;92786;-43
2023/10/31 10:38:18;;;;;;;;;;;17.00;71.20;;;;;;10226132;28;93091;-44
2023/10/31 10:43:24;;;;;;;;;;;17.10;71.20;;;;;;10237761;28;94163;-43
2023/10/31 10:48:26;;;;;;;;;;;17.10;71.20;;;;;;10242252;28;93546;-44
2023/10/31 10:53:44;;;;;;;;;;;17.00;71.10;;;;;;10384741;27;88278;-49
2023/10/31 10:58:57;;;;;;;;;;;17.00;71.10;;;;;;10371506;28;90362;-44
2023/10/31 11:03:59;;;;;;;;;;;17.00;71.10;;;;;;10374408;28;88843;-48
2023/10/31 11:09:02;;;;;;;;;;;16.90;71.10;;;;;;10363058;28;89436;-46
2023/10/31 11:14:04;;;;;;;;;;;16.90;71.10;;;;;;10353923;28;88159;-44
2023/10/31 11:19:09;;;;;;;;;;;17.00;71.10;;;;;;10371457;28;89206;-46
2023/10/31 11:24:11;;;;;;;;;;;17.00;71.20;;;;;;10369732;28;88677;-46
2023/10/31 11:29:13;;;;;;;;;;;16.90;71.10;;;;;;10375893;28;89148;-44
2023/10/31 11:34:16;;;;;;;;;;;17.00;71.00;;;;;;10410554;27;89199;-44
2023/10/31 11:39:20;;;;;;;;;;;17.00;71.00;;;;;;10373710;28;89275;-44
2023/10/31 11:44:23;;;;;;;;;;;17.00;71.00;;;;;;10371479;28;89611;-44
2023/10/31 11:49:43;;;;;;;;;;;17.00;71.00;;;;;;10361641;28;89285;-43
2023/10/31 11:54:46;;;;;;;;;;;16.90;71.00;;;;;;10380885;28;89154;-45
2023/10/31 11:59:47;;;;;;;;;;;17.00;70.90;;;;;;10339295;28;89596;-46
2023/10/31 12:04:49;;;;;;;;;;;17.00;70.80;;;;;;10371863;27;89010;-44
2023/10/31 12:09:51;;;;;;;;;;;17.00;70.70;;;;;;10354984;27;88141;-46
2023/10/31 12:15:03;;;;;;;;;;;17.00;70.70;;;;;;10321800;28;88553;-47
2023/10/31 12:20:07;;;;;;;;;;;17.00;70.70;;;;;;10329537;28;89124;-48
2023/10/31 12:25:10;;;;;;;;;;;17.00;70.70;;;;;;10319015;28;89531;-43
2023/10/31 12:30:12;;;;;;;;;;;17.10;70.70;;;;;;10332212;28;88606;-44
2023/10/31 12:35:16;;;;;;;;;;;17.00;70.60;;;;;;10345072;28;89188;-46
2023/10/31 12:40:22;;;;;;;;;;;17.10;70.60;;;;;;10343985;28;88570;-44
2023/10/31 12:45:24;;;;;;;;;;;17.10;70.50;;;;;;10331892;28;90282;-44
2023/10/31 12:50:26;;;;;;;;;;;17.10;70.40;;;;;;10326933;28;89390;-44
2023/10/31 12:55:28;;;;;;;;;;;17.20;70.40;;;;;;10306481;28;89455;-47
2023/10/31 13:00:31;;;;;;;;;;;17.20;70.30;;;;;;10296778;28;88234;-43
2023/10/31 13:05:33;;;;;;;;;;;17.20;70.20;;;;;;10340048;28;89283;-43
2023/10/31 13:10:35;;;;;;;;;;;17.30;70.20;;;;;;10340989;28;89333;-42
2023/10/31 13:15:37;;;;;;;;;;;17.30;70.10;;;;;;10338171;28;88367;-44
2023/10/31 13:20:39;;;;;;;;;;;17.30;70.00;;;;;;10328994;28;88478;-43
2023/10/31 13:25:41;;;;;;;;;;;17.30;70.00;;;;;;10329426;28;89306;-44
2023/10/31 13:30:43;;;;;;;;;;;17.30;70.00;;;;;;10340473;28;89244;-47
2023/10/31 13:35:45;;;;;;;;;;;17.30;69.90;;;;;;10339694;28;89182;-43
2023/10/31 13:40:47;;;;;;;;;;;17.30;70.00;;;;;;10323558;28;89292;-44
2023/10/31 13:45:49;;;;;;;;;;;17.30;70.00;;;;;;10330114;28;89106;-46
2023/10/31 13:50:51;;;;;;;;;;;17.30;70.00;;;;;;10353898;28;89004;-44
2023/10/31 13:55:55;;;;;;;;;;;17.20;70.00;;;;;;10349495;28;89317;-45
2023/10/31 14:00:57;;;;;;;;;;;17.20;70.00;;;;;;10338281;28;89460;-44
2023/10/31 14:05:59;;;;;;;;;;;17.20;70.00;;;;;;10339019;28;88506;-56
2023/10/31 14:11:01;;;;;;;;;;;17.10;69.90;;;;;;10334810;28;88170;-45
2023/10/31 14:16:03;;;;;;;;;;;17.10;69.90;;;;;;10345900;28;89674;-43
2023/10/31 14:21:04;;;;;;;;;;;17.10;70.00;;;;;;10331832;28;90166;-47
2023/10/31 14:26:06;;;;;;;;;;;17.10;70.00;;;;;;10325175;28;89873;-68
2023/10/31 14:31:10;;;;;;;;;;;17.10;70.00;;;;;;10329987;28;89161;-44
2023/10/31 14:36:13;;;;;;;;;;;17.10;70.10;;;;;;10349088;28;89247;-43
2023/10/31 14:41:14;;;;;;;;;;;17.00;70.10;;;;;;10297959;28;88969;-44
2023/10/31 14:46:16;;;;;;;;;;;17.00;70.10;;;;;;10331560;28;89547;-47
2023/10/31 14:51:18;;;;;;;;;;;17.00;70.10;;;;;;10316761;28;89439;-44
2023/10/31 14:56:21;;;;;;;;;;;17.00;70.20;;;;;;10304419;28;89788;-46
2023/10/31 15:01:23;;;;;;;;;;;16.90;70.10;;;;;;10342144;28;88237;-43
2023/10/31 15:06:25;;;;;;;;;;;16.90;71.10;;;;;;10341915;28;88180;-46
2023/10/31 15:11:28;;;;;;;;;;;16.90;70.20;;;;;;10341531;28;90425;-45
2023/10/31 15:16:30;;;;;;;;;;;16.90;70.30;;;;;;10331321;28;89408;-43
2023/10/31 15:21:32;;;;;;;;;;;16.90;70.30;;;;;;10338755;28;89129;-43
2023/10/31 15:26:34;;;;;;;;;;;16.90;70.30;;;;;;10303954;28;89297;-43
2023/10/31 15:31:36;;;;;;;;;;;16.90;70.30;;;;;;10313691;28;88249;-44
2023/10/31 15:36:38;;;;;;;;;;;16.90;70.30;;;;;;10306052;28;89172;-44
2023/10/31 15:41:40;;;;;;;;;;;16.80;70.40;;;;;;10327756;28;88288;-43
2023/10/31 15:46:42;;;;;;;;;;;16.80;70.40;;;;;;10319901;28;89285;-44
2023/10/31 15:51:44;;;;;;;;;;;16.80;70.40;;;;;;10318982;28;89222;-44
2023/10/31 15:56:46;;;;;;;;;;;16.80;70.40;;;;;;10322334;28;88999;-43
2023/10/31 16:01:48;;;;;;;;;;;16.80;70.60;;;;;;10330301;28;88606;-44
2023/10/31 16:06:50;;;;;;;;;;;16.80;70.50;;;;;;10330769;28;88304;-43
2023/10/31 16:11:52;;;;;;;;;;;16.80;70.50;;;;;;10327642;28;89231;-45
2023/10/31 16:16:55;;;;;;;;;;;16.80;70.40;;;;;;10323025;28;88491;-52
2023/10/31 16:21:57;;;;;;;;;;;16.80;70.40;;;;;;10311475;28;91205;-42
2023/10/31 16:26:59;;;;;;;;;;;16.80;70.40;;;;;;10332893;28;89438;-45
2023/10/31 16:32:01;;;;;;;;;;;16.80;70.40;;;;;;10310490;28;89894;-47
2023/10/31 16:37:03;;;;;;;;;;;16.80;70.40;;;;;;10316813;28;89229;-44
2023/10/31 16:42:05;;;;;;;;;;;16.80;70.30;;;;;;10321675;28;88815;-45
2023/10/31 16:47:06;;;;;;;;;;;16.80;70.20;;;;;;10322714;28;89900;-45
2023/10/31 16:52:08;;;;;;;;;;;16.80;70.20;;;;;;10328693;28;88201;-49
2023/10/31 16:57:10;;;;;;;;;;;16.80;70.30;;;;;;10327361;28;89615;-45
2023/10/31 17:02:13;;;;;;;;;;;16.80;70.50;;;;;;10331282;28;88414;-47
2023/10/31 17:07:15;;;;;;;;;;;16.80;70.50;;;;;;10327900;28;89592;-46
2023/10/31 17:12:17;;;;;;;;;;;16.80;70.50;;;;;;10314846;28;89471;-48
2023/10/31 17:17:19;;;;;;;;;;;16.90;70.90;;;;;;10338430;28;89315;-45
2023/10/31 17:22:22;;;;;;;;;;;17.10;70.90;;;;;;10319245;28;89034;-44
2023/10/31 17:27:25;;;;;;;;;;;17.20;70.90;;;;;;10326295;28;89355;-45
2023/10/31 17:32:27;;;;;;;;;;;17.40;72.10;;;;;;10327777;28;88423;-44
2023/10/31 17:37:29;;;;;;;;;;;17.50;71.10;;;;;;10348950;28;89537;-48
2023/10/31 17:42:34;;;;;;;;;;;17.60;70.80;;;;;;10339533;28;88898;-44
2023/10/31 17:47:36;;;;;;;;;;;17.70;70.70;;;;;;10337604;28;89567;-43
2023/10/31 17:52:38;;;;;;;;;;;17.70;70.50;;;;;;10335908;28;90006;-47
2023/10/31 17:57:39;;;;;;;;;;;17.70;71.60;;;;;;10331435;28;89368;-46
2023/10/31 18:02:41;;;;;;;;;;;17.70;70.50;;;;;;10314077;28;89348;-48
2023/10/31 18:07:44;;;;;;;;;;;17.70;70.50;;;;;;10314728;28;89270;-44
2023/10/31 18:12:48;;;;;;;;;;;17.70;70.40;;;;;;10321596;28;89182;-43
2023/10/31 18:17:51;;;;;;;;;;;17.60;70.40;;;;;;10339104;28;88245;-43
2023/10/31 18:22:53;;;;;;;;;;;17.60;70.40;;;;;;10325439;28;89330;-45
2023/10/31 18:27:55;;;;;;;;;;;17.50;70.30;;;;;;10335044;28;88364;-46
2023/10/31 18:33:02;;;;;;;;;;;17.50;70.30;;;;;;10338735;28;89210;-47
2023/10/31 18:38:05;;;;;;;;;;;17.50;70.40;;;;;;10325720;28;88027;-43
2023/10/31 18:43:07;;;;;;;;;;;17.50;70.60;;;;;;10311565;28;89444;-45
2023/10/31 18:48:10;;;;;;;;;;;17.60;70.50;;;;;;10325288;28;89600;-44
2023/10/31 18:53:12;;;;;;;;;;;17.60;70.20;;;;;;10334655;28;88560;-45
2023/10/31 18:58:14;;;;;;;;;;;17.60;70.00;;;;;;10336231;28;89285;-44
2023/10/31 19:03:15;;;;;;;;;;;17.70;70.00;;;;;;10306774;28;89612;-46
2023/10/31 19:08:17;;;;;;;;;;;17.60;69.90;;;;;;10300311;28;89405;-47
2023/10/31 19:13:19;;;;;;;;;;;17.70;69.90;;;;;;10334388;28;89796;-45
2023/10/31 19:18:23;;;;;;;;;;;17.80;69.70;;;;;;10346317;28;89144;-45
2023/10/31 19:23:25;;;;;;;;;;;17.80;69.50;;;;;;10331682;28;89339;-45
2023/10/31 19:28:27;;;;;;;;;;;17.70;69.50;;;;;;10321845;28;89924;-47
2023/10/31 19:33:28;;;;;;;;;;;17.80;69.50;;;;;;10350539;28;89904;-50
2023/10/31 19:38:30;;;;;;;;;;;17.80;69.50;;;;;;10341914;28;89617;-48
2023/10/31 19:43:33;;;;;;;;;;;17.90;69.30;;;;;;10340712;28;90240;-44
2023/10/31 19:48:35;;;;;;;;;;;17.90;69.20;;;;;;10330885;28;90342;-45
2023/10/31 19:53:37;;;;;;;;;;;17.90;69.10;;;;;;10350299;28;90014;-44
2023/10/31 19:58:39;;;;;;;;;;;17.90;69.10;;;;;;10309129;28;90019;-45
2023/10/31 20:03:41;;;;;;;;;;;17.80;69.20;;;;;;10333842;28;90258;-47
2023/10/31 20:08:43;;;;;;;;;;;17.90;69.10;;;;;;10322294;28;89931;-44
2023/10/31 20:13:45;;;;;;;;;;;17.90;68.90;;;;;;10363294;27;89250;-45
2023/10/31 20:18:47;;;;;;;;;;;18.00;68.90;;;;;;10321199;28;90059;-45
2023/10/31 20:23:49;;;;;;;;;;;17.90;68.80;;;;;;10329190;28;90089;-43
2023/10/31 20:28:51;;;;;;;;;;;17.90;68.90;;;;;;10328465;28;90539;-46
2023/10/31 20:33:53;;;;;;;;;;;17.90;69.10;;;;;;10336453;28;89085;-44
2023/10/31 20:38:55;;;;;;;;;;;17.90;68.90;;;;;;10336701;28;89834;-43
2023/10/31 20:43:57;;;;;;;;;;;18.00;68.80;;;;;;10341613;28;88854;-44
2023/10/31 20:49:00;;;;;;;;;;;18.00;68.80;;;;;;10328041;28;89910;-44
2023/10/31 20:54:02;;;;;;;;;;;17.90;68.70;;;;;;10348440;28;90162;-46
2023/10/31 20:59:04;;;;;;;;;;;17.90;68.70;;;;;;10334244;28;88891;-45
2023/10/31 21:04:05;;;;;;;;;;;17.90;68.80;;;;;;10364015;28;88642;-45
2023/10/31 21:09:09;;;;;;;;;;;17.80;68.80;;;;;;10333834;28;88989;-46
2023/10/31 21:14:11;;;;;;;;;;;17.80;68.90;;;;;;10319516;28;89860;-45
2023/10/31 21:19:13;;;;;;;;;;;17.70;69.00;;;;;;10316071;28;90812;-44
2023/10/31 21:24:24;;;;;;;;;;;17.70;69.10;;;;;;10322862;28;90482;-44
2023/10/31 21:29:26;;;;;;;;;;;17.60;69.10;;;;;;10320737;28;90075;-44
2023/10/31 21:34:28;;;;;;;;;;;17.70;70.30;;;;;;10332002;28;89207;-43
2023/10/31 21:39:30;;;;;;;;;;;17.70;70.00;;;;;;10326079;28;89022;-44
2023/10/31 21:44:32;;;;;;;;;;;17.60;69.70;;;;;;10315669;28;90151;-43
2023/10/31 21:49:34;;;;;;;;;;;17.60;69.70;;;;;;10333040;28;90034;-47
2023/10/31 21:54:36;;;;;;;;;;;17.60;69.70;;;;;;10317327;28;88260;-44
2023/10/31 21:59:38;;;;;;;;;;;17.50;69.70;;;;;;10312836;28;89089;-44
2023/10/31 22:04:40;;;;;;;;;;;17.50;69.70;;;;;;10316812;28;89983;-44
2023/10/31 22:09:42;;;;;;;;;;;17.50;69.90;;;;;;10377070;27;90986;-44
2023/10/31 22:14:43;;;;;;;;;;;17.50;69.90;;;;;;10326642;28;89896;-45
2023/10/31 22:19:45;;;;;;;;;;;17.40;69.90;;;;;;10331156;28;90144;-45
2023/10/31 22:24:47;;;;;;;;;;;17.40;70.90;;;;;;10338375;28;88944;-45
2023/10/31 22:29:49;;;;;;;;;;;17.40;70.00;;;;;;10335477;28;90064;-46
2023/10/31 22:34:51;;;;;;;;;;;17.40;70.00;;;;;;10319833;28;88436;-47
2023/10/31 22:39:53;;;;;;;;;;;17.30;70.00;;;;;;10314330;28;90441;-47
2023/10/31 22:44:55;;;;;;;;;;;17.30;70.00;;;;;;10337261;28;90059;-49
2023/10/31 22:49:57;;;;;;;;;;;17.30;70.10;;;;;;10352019;28;90330;-46
2023/10/31 22:54:59;;;;;;;;;;;17.30;70.10;;;;;;10331283;28;90554;-44
2023/10/31 23:00:06;;;;;;;;;;;17.20;70.10;;;;;;10321527;28;90694;-44
2023/10/31 23:05:10;;;;;;;;;;;17.20;70.10;;;;;;10314448;28;89859;-48
2023/10/31 23:10:12;;;;;;;;;;;17.20;70.10;;;;;;10288955;28;90076;-44
2023/10/31 23:15:14;;;;;;;;;;;17.20;70.20;;;;;;10331372;28;89996;-46
2023/10/31 23:20:18;;;;;;;;;;;17.20;70.20;;;;;;10313570;28;90010;-43
2023/10/31 23:25:20;;;;;;;;;;;17.10;70.20;;;;;;10317654;28;89699;-43
2023/10/31 23:30:22;;;;;;;;;;;17.10;70.20;;;;;;10321243;28;91041;-49
2023/10/31 23:35:24;;;;;;;;;;;17.00;70.10;;;;;;10324193;28;89124;-44
2023/10/31 23:40:26;;;;;;;;;;;17.10;70.20;;;;;;10318886;28;88809;-44
2023/10/31 23:45:28;;;;;;;;;;;17.10;70.30;;;;;;10307218;28;89996;-44
2023/10/31 23:50:29;;;;;;;;;;;17.10;70.30;;;;;;10303246;28;90016;-43
2023/10/31 23:55:31;;;;;;;;;;;17.00;70.20;;;;;;10314042;28;89069;-43
